createdAt,value
2023-04-20T00:01:48.241Z,4.00
2023-04-20T00:04:16.763Z,4.20
2023-04-20T00:06:47.148Z,4.83
2023-04-20T00:09:16.303Z,3.57
2023-04-20T00:11:44.679Z,4.87
2023-04-20T00:14:12.906Z,2.90
2023-04-20T00:16:41.195Z,3.90
2023-04-20T00:19:09.534Z,3.57
2023-04-20T00:21:37.881Z,3.60
2023-04-20T00:24:07.776Z,3.20
2023-04-20T00:26:36.056Z,4.10
2023-04-20T00:29:04.283Z,4.67
2023-04-20T00:31:32.874Z,3.63
2023-04-20T00:34:01.156Z,4.83
2023-04-20T00:36:29.829Z,3.90
2023-04-20T00:38:58.096Z,3.27
2023-04-20T00:41:27.670Z,3.10
2023-04-20T00:43:56.074Z,3.30
2023-04-20T00:46:24.732Z,3.07
2023-04-20T00:48:53.206Z,3.67
2023-04-20T00:51:21.474Z,3.47
2023-04-20T00:53:49.901Z,3.90
2023-04-20T00:56:19.220Z,3.37
2023-04-20T00:58:48.808Z,3.47
2023-04-20T01:01:18.366Z,3.73
2023-04-20T01:03:46.950Z,3.67
2023-04-20T01:06:15.977Z,3.50
2023-04-20T01:08:48.106Z,3.30
2023-04-20T01:11:16.392Z,3.77
2023-04-20T01:13:44.995Z,2.60
2023-04-20T01:16:14.805Z,3.50
2023-04-20T01:18:44.371Z,3.63
2023-04-20T01:21:13.059Z,3.20
2023-04-20T01:23:42.637Z,3.30
2023-04-20T01:26:11.522Z,4.20
2023-04-20T01:28:40.240Z,3.47
2023-04-20T01:31:09.131Z,4.40
2023-04-20T01:33:37.540Z,3.97
2023-04-20T01:36:06.575Z,4.63
2023-04-20T01:38:35.065Z,3.87
2023-04-20T01:41:05.496Z,5.17
2023-04-20T01:43:34.652Z,4.33
2023-04-20T01:46:02.972Z,5.20
2023-04-20T01:48:31.227Z,6.27
2023-04-20T01:50:59.625Z,4.40
2023-04-20T01:53:27.950Z,5.17
2023-04-20T01:55:56.184Z,5.03
2023-04-20T01:58:25.935Z,4.70
2023-04-20T02:00:54.242Z,4.50
2023-04-20T02:03:22.698Z,4.80
2023-04-20T02:05:51.162Z,5.53
2023-04-20T02:08:19.442Z,5.07
2023-04-20T02:10:47.639Z,5.40
2023-04-20T02:13:15.904Z,6.20
2023-04-20T02:15:45.814Z,5.13
2023-04-20T02:18:16.096Z,5.03
2023-04-20T02:20:44.409Z,5.50
2023-04-20T02:23:12.790Z,4.83
2023-04-20T02:25:41.053Z,5.30
2023-04-20T02:28:09.222Z,5.17
2023-04-20T02:30:37.394Z,3.20
2023-04-20T02:33:07.500Z,4.43
2023-04-20T02:35:35.750Z,3.67
2023-04-20T02:38:04.020Z,3.50
2023-04-20T02:40:32.243Z,3.57
2023-04-20T02:43:00.448Z,3.70
2023-04-20T02:45:28.804Z,3.40
2023-04-20T02:47:57.346Z,3.63
2023-04-20T02:50:27.037Z,3.53
2023-04-20T02:52:55.229Z,5.60
2023-04-20T02:55:23.523Z,3.83
2023-04-20T02:57:51.804Z,2.83
2023-04-20T03:00:20.465Z,3.87
2023-04-20T03:02:49.183Z,3.33
2023-04-20T03:05:17.752Z,3.50
2023-04-20T03:07:47.338Z,3.73
2023-04-20T03:10:15.525Z,3.47
2023-04-20T03:12:43.696Z,3.50
2023-04-20T03:15:12.291Z,3.13
2023-04-20T03:17:40.487Z,3.97
2023-04-20T03:20:09.342Z,3.13
2023-04-20T03:22:37.544Z,2.70
2023-04-20T03:25:07.778Z,3.10
2023-04-20T03:27:35.988Z,4.03
2023-04-20T03:30:04.317Z,4.80
2023-04-20T03:32:32.834Z,3.20
2023-04-20T03:35:01.263Z,4.17
2023-04-20T03:37:29.446Z,4.07
2023-04-20T03:39:57.652Z,2.63
2023-04-20T03:42:27.263Z,3.87
2023-04-20T03:44:55.509Z,4.10
2023-04-20T03:47:23.776Z,3.27
2023-04-20T03:49:52.128Z,2.33
2023-04-20T03:52:20.388Z,3.67
2023-04-20T03:54:48.629Z,4.00
2023-04-20T03:57:16.857Z,3.50
2023-04-20T03:59:46.364Z,3.43
2023-04-20T04:02:14.673Z,4.37
2023-04-20T04:04:43.492Z,5.00
2023-04-20T04:07:12.504Z,4.87
2023-04-20T04:09:40.769Z,3.87
2023-04-20T04:12:09.236Z,4.47
2023-04-20T04:14:37.498Z,3.57
2023-04-20T04:17:08.129Z,3.13
2023-04-20T04:19:36.520Z,3.80
2023-04-20T04:22:04.738Z,4.07
2023-04-20T04:24:33.477Z,3.40
2023-04-20T04:27:02.130Z,3.67
2023-04-20T04:29:30.343Z,3.50
2023-04-20T04:31:58.612Z,3.90
2023-04-20T04:34:29.815Z,3.40
2023-04-20T04:36:58.207Z,3.50
2023-04-20T04:39:26.809Z,2.30
2023-04-20T04:41:55.068Z,4.83
2023-04-20T04:44:23.258Z,4.47
2023-04-20T04:46:51.793Z,3.60
2023-04-20T04:49:20.512Z,5.00
2023-04-20T04:51:50.306Z,4.90
2023-04-20T04:54:18.604Z,5.07
2023-04-20T04:56:46.851Z,3.10
2023-04-20T04:59:15.233Z,1.50
2023-04-20T05:01:43.544Z,3.70
2023-04-20T05:04:11.910Z,2.00
2023-04-20T05:06:40.452Z,3.37
2023-04-20T05:09:10.088Z,3.07
2023-04-20T05:11:38.385Z,1.77
2023-04-20T05:14:06.631Z,3.80
2023-04-20T05:16:34.925Z,3.17
2023-04-20T05:19:04.042Z,3.10
2023-04-20T05:21:32.717Z,3.00
2023-04-20T05:24:00.974Z,1.30
2023-04-20T05:26:30.613Z,5.13
2023-04-20T05:28:58.834Z,3.67
2023-04-20T05:31:27.325Z,4.43
2023-04-20T05:33:55.934Z,4.17
2023-04-20T05:36:24.245Z,3.63
2023-04-20T05:38:52.420Z,4.60
2023-04-20T05:41:26.653Z,5.03
2023-04-20T05:43:56.965Z,3.57
2023-04-20T05:46:25.319Z,4.30
2023-04-20T05:48:53.635Z,4.83
2023-04-20T05:51:22.358Z,4.40
2023-04-20T05:53:50.564Z,4.70
2023-04-20T05:56:19.393Z,3.10
2023-04-20T05:58:47.908Z,5.27
2023-04-20T06:01:17.486Z,6.00
2023-04-20T06:03:46.013Z,6.03
2023-04-20T06:06:16.182Z,3.67
2023-04-20T06:08:45.177Z,3.30
2023-04-20T06:11:13.402Z,4.00
2023-04-20T06:13:41.601Z,3.10
2023-04-20T06:16:10.974Z,4.00
2023-04-20T06:18:40.954Z,4.27
2023-04-20T06:21:11.072Z,1.17
2023-04-20T06:23:39.302Z,2.93
2023-04-20T06:26:09.623Z,2.20
2023-04-20T06:28:37.870Z,3.83
2023-04-20T06:31:06.318Z,1.93
2023-04-20T06:33:34.775Z,1.47
2023-04-20T06:36:04.326Z,4.10
2023-04-20T06:38:32.482Z,4.00
2023-04-20T06:41:02.452Z,4.40
2023-04-20T06:43:31.085Z,5.87
2023-04-20T06:45:59.302Z,5.90
2023-04-20T06:48:31.574Z,5.53
2023-04-20T06:51:01.177Z,6.70
2023-04-20T06:53:30.702Z,5.43
2023-04-20T06:55:59.156Z,6.93
2023-04-20T06:58:27.390Z,6.77
2023-04-20T07:00:55.670Z,6.70
2023-04-20T07:03:24.285Z,6.50
2023-04-20T07:05:52.686Z,7.83
2023-04-20T07:08:21.021Z,5.87
2023-04-20T07:10:50.610Z,5.83
2023-04-20T07:13:18.857Z,7.73
2023-04-20T07:15:47.324Z,7.67
2023-04-20T07:18:16.042Z,7.40
2023-04-20T07:20:44.208Z,7.17
2023-04-20T07:23:12.491Z,7.00
2023-04-20T07:25:40.666Z,7.10
2023-04-20T07:28:10.429Z,6.77
2023-04-20T07:30:38.809Z,8.73
2023-04-20T07:33:08.303Z,8.40
2023-04-20T07:35:36.534Z,8.37
2023-04-20T07:38:04.720Z,8.67
2023-04-20T07:40:32.887Z,8.17
2023-04-20T07:43:01.105Z,9.00
2023-04-20T07:45:30.745Z,8.50
2023-04-20T07:48:01.484Z,8.83
2023-04-20T07:50:29.995Z,8.37
2023-04-20T07:52:58.227Z,7.13
2023-04-20T07:55:26.447Z,8.57
2023-04-20T07:57:54.655Z,10.40
2023-04-20T08:00:22.937Z,5.73
2023-04-20T08:02:52.626Z,7.83
2023-04-20T08:05:21.100Z,10.00
2023-04-20T08:07:49.489Z,10.20
2023-04-20T08:10:17.727Z,6.10
2023-04-20T08:12:47.097Z,9.93
2023-04-20T08:15:15.374Z,8.20
2023-04-20T08:17:43.604Z,8.30
2023-04-20T08:20:13.321Z,8.00
2023-04-20T08:22:41.581Z,9.13
2023-04-20T08:25:10.160Z,10.73
2023-04-20T08:27:38.420Z,6.77
2023-04-20T08:30:07.842Z,4.80
2023-04-20T08:32:36.255Z,5.33
2023-04-20T08:35:04.791Z,8.07
2023-04-20T08:37:34.413Z,8.70
2023-04-20T08:40:02.622Z,8.13
2023-04-20T08:42:30.848Z,9.97
2023-04-20T08:44:59.549Z,8.77
2023-04-20T08:47:27.743Z,10.20
2023-04-20T08:49:55.961Z,9.80
2023-04-20T08:52:24.170Z,9.80
2023-04-20T08:54:57.451Z,7.60
2023-04-20T08:57:26.783Z,10.30
2023-04-20T08:59:55.100Z,11.87
2023-04-20T09:02:24.205Z,7.20
2023-04-20T09:05:02.369Z,7.37
2023-04-20T09:07:30.678Z,11.87
2023-04-20T09:10:01.116Z,11.23
2023-04-20T09:12:30.034Z,16.70
2023-04-20T09:14:58.272Z,16.57
2023-04-20T09:17:33.835Z,13.37
2023-04-20T09:20:02.211Z,14.10
2023-04-20T09:22:33.673Z,12.87
2023-04-20T09:25:13.619Z,12.50
2023-04-20T09:27:41.832Z,12.73
2023-04-20T09:30:10.595Z,13.90
2023-04-20T09:32:38.817Z,10.20
2023-04-20T09:35:07.822Z,9.77
2023-04-20T09:37:36.321Z,10.13
2023-04-20T09:40:07.827Z,11.30
2023-04-20T09:42:39.052Z,9.23
2023-04-20T09:45:07.859Z,9.53
2023-04-20T09:47:41.663Z,9.90
2023-04-20T09:50:24.716Z,9.13
2023-04-20T09:53:00.214Z,10.13
2023-04-20T09:55:32.078Z,9.10
2023-04-20T09:58:00.480Z,9.07
2023-04-20T10:00:28.860Z,9.47
2023-04-20T10:02:57.206Z,9.13
2023-04-20T10:05:35.592Z,7.60
2023-04-20T10:08:04.120Z,7.83
2023-04-20T10:10:44.311Z,5.13
2023-04-20T10:13:12.560Z,5.63
2023-04-20T10:15:41.531Z,7.03
2023-04-20T10:18:20.349Z,6.00
2023-04-20T10:20:48.691Z,4.80
2023-04-20T10:23:18.732Z,5.20
2023-04-20T10:25:58.297Z,3.60
2023-04-20T10:28:26.693Z,2.60
2023-04-20T10:30:56.309Z,4.00
2023-04-20T10:33:24.551Z,3.60
2023-04-20T10:35:54.957Z,2.53
2023-04-20T10:38:30.368Z,3.53
2023-04-20T10:41:07.454Z,4.17
2023-04-20T10:43:38.922Z,3.97
2023-04-20T10:46:14.914Z,2.70
2023-04-20T10:48:51.018Z,3.80
2023-04-20T10:51:19.357Z,4.20
2023-04-20T10:53:47.631Z,1.60
2023-04-20T10:56:17.160Z,4.10
2023-04-20T10:58:45.361Z,3.43
2023-04-20T11:01:13.550Z,4.80
2023-04-20T11:03:42.001Z,2.87
2023-04-20T11:06:10.310Z,5.03
2023-04-20T11:08:39.736Z,4.40
2023-04-20T11:11:08.767Z,4.47
2023-04-20T11:13:39.744Z,4.97
2023-04-20T11:16:11.843Z,4.50
2023-04-20T11:18:48.145Z,3.30
2023-04-20T11:21:16.321Z,2.67
2023-04-20T11:23:44.840Z,3.40
2023-04-20T11:26:13.132Z,4.37
2023-04-20T11:28:53.320Z,4.07
2023-04-20T11:31:23.569Z,4.00
2023-04-20T11:33:52.049Z,4.07
2023-04-20T11:36:20.868Z,3.67
2023-04-20T11:38:49.227Z,5.23
2023-04-20T11:41:18.684Z,4.23
2023-04-20T11:43:49.286Z,5.20
2023-04-20T11:46:18.184Z,3.40
2023-04-20T11:48:46.478Z,4.10
2023-04-20T11:51:14.812Z,3.53
2023-04-20T11:53:43.147Z,3.97
2023-04-20T11:56:11.343Z,4.00
2023-04-20T11:58:39.585Z,4.60
2023-04-20T12:01:09.182Z,4.77
2023-04-20T12:03:37.997Z,3.93
2023-04-20T12:06:06.522Z,5.27
2023-04-20T12:08:34.679Z,7.07
2023-04-20T12:11:02.835Z,3.73
2023-04-20T12:13:31.395Z,5.37
2023-04-20T12:15:59.630Z,4.17
2023-04-20T12:18:29.445Z,1.63
2023-04-20T12:20:57.665Z,4.00
2023-04-20T12:23:25.893Z,4.93
2023-04-20T12:25:54.254Z,2.80
2023-04-20T12:28:22.551Z,3.20
2023-04-20T12:30:50.899Z,2.63
2023-04-20T12:33:19.087Z,3.60
2023-04-20T12:35:48.691Z,4.97
2023-04-20T12:38:16.963Z,4.83
2023-04-20T12:40:45.325Z,4.77
2023-04-20T12:43:13.657Z,4.67
2023-04-20T12:45:41.879Z,4.73
2023-04-20T12:48:10.285Z,4.27
2023-04-20T12:50:40.234Z,4.70
2023-04-20T12:53:09.804Z,3.57
2023-04-20T12:55:38.046Z,5.40
2023-04-20T12:58:06.300Z,4.53
2023-04-20T13:00:34.492Z,5.57
2023-04-20T13:03:02.826Z,5.80
2023-04-20T13:05:31.277Z,4.70
2023-04-20T13:07:59.602Z,4.33
2023-04-20T13:10:29.733Z,4.53
2023-04-20T13:12:59.593Z,4.70
2023-04-20T13:15:38.067Z,4.77
2023-04-20T13:18:09.505Z,5.83
2023-04-20T13:20:38.081Z,5.30
2023-04-20T13:23:06.813Z,5.20
2023-04-20T13:25:38.308Z,5.33
2023-04-20T13:28:07.176Z,4.23
2023-04-20T13:30:35.498Z,6.23
2023-04-20T13:33:03.678Z,6.77
2023-04-20T13:35:31.935Z,5.50
2023-04-20T13:38:00.154Z,4.37
2023-04-20T13:40:28.329Z,7.07
2023-04-20T13:42:58.414Z,6.90
2023-04-20T13:45:27.926Z,7.37
2023-04-20T13:47:56.288Z,8.20
2023-04-20T13:50:24.575Z,6.33
2023-04-20T13:52:52.818Z,5.53
2023-04-20T13:55:21.352Z,8.13
2023-04-20T13:57:49.615Z,5.43
2023-04-20T14:00:19.713Z,4.30
2023-04-20T14:02:48.136Z,7.60
2023-04-20T14:05:16.540Z,6.83
2023-04-20T14:07:44.735Z,7.63
2023-04-20T14:10:13.210Z,8.00
2023-04-20T14:12:41.389Z,5.83
2023-04-20T14:15:10.339Z,8.50
2023-04-20T14:17:39.986Z,8.43
2023-04-20T14:20:09.352Z,5.00
2023-04-20T14:22:37.629Z,7.77
2023-04-20T14:25:06.206Z,7.30
2023-04-20T14:27:34.400Z,6.47
2023-04-20T14:30:02.667Z,6.10
2023-04-20T14:32:31.722Z,6.83
2023-04-20T14:35:03.241Z,6.00
2023-04-20T14:37:33.095Z,6.40
2023-04-20T14:40:01.369Z,6.30
2023-04-20T14:42:29.631Z,7.60
2023-04-20T14:44:57.860Z,5.13
2023-04-20T14:47:26.175Z,6.90
2023-04-20T14:49:54.430Z,3.97
2023-04-20T14:52:24.051Z,6.93
2023-04-20T14:54:52.243Z,7.60
2023-04-20T14:57:20.591Z,6.30
2023-04-20T14:59:48.781Z,7.47
2023-04-20T15:02:18.310Z,5.33
2023-04-20T15:04:46.784Z,5.60
2023-04-20T15:07:15.058Z,5.57
2023-04-20T15:09:44.715Z,6.37
2023-04-20T15:12:12.947Z,6.53
2023-04-20T15:14:41.205Z,5.90
2023-04-20T15:17:09.438Z,6.80
2023-04-20T15:19:37.760Z,5.90
2023-04-20T15:22:06.016Z,4.80
2023-04-20T15:24:35.446Z,6.30
2023-04-20T15:27:06.296Z,6.03
2023-04-20T15:29:35.897Z,6.27
2023-04-20T15:32:04.353Z,8.07
2023-04-20T15:34:32.556Z,6.73
2023-04-20T15:37:01.037Z,3.50
2023-04-20T15:39:29.309Z,5.93
2023-04-20T15:41:57.734Z,5.00
2023-04-20T15:44:27.681Z,6.37
2023-04-20T15:46:56.093Z,6.60
2023-04-20T15:49:24.302Z,6.43
2023-04-20T15:51:52.476Z,6.83
2023-04-20T15:54:23.681Z,6.90
2023-04-20T15:56:52.114Z,6.23
2023-04-20T15:59:20.765Z,2.90
2023-04-20T16:01:50.456Z,6.30
2023-04-20T16:04:19.177Z,8.10
2023-04-20T16:06:47.668Z,5.80
2023-04-20T16:09:15.988Z,6.00
2023-04-20T16:11:44.254Z,6.00
2023-04-20T16:14:12.468Z,6.83
2023-04-20T16:16:40.676Z,6.70
2023-04-20T16:19:10.507Z,6.10
2023-04-20T16:21:38.743Z,7.40
2023-04-20T16:24:07.096Z,6.03
2023-04-20T16:26:35.368Z,6.10
2023-04-20T16:29:03.642Z,5.20
2023-04-20T16:31:31.989Z,5.60
2023-04-20T16:34:00.667Z,6.97
2023-04-20T16:36:30.266Z,7.67
2023-04-20T16:38:58.436Z,7.07
2023-04-20T16:41:27.114Z,4.57
2023-04-20T16:43:55.579Z,7.27
2023-04-20T16:46:23.883Z,5.93
2023-04-20T16:48:52.486Z,6.50
2023-04-20T16:51:20.692Z,7.23
2023-04-20T16:53:50.246Z,6.30
2023-04-20T16:56:18.507Z,6.70
2023-04-20T16:58:46.990Z,6.63
2023-04-20T17:01:15.577Z,6.60
2023-04-20T17:03:44.310Z,6.80
2023-04-20T17:06:12.666Z,5.80
2023-04-20T17:08:40.875Z,6.47
2023-04-20T17:11:10.477Z,6.80
2023-04-20T17:13:38.705Z,5.97
2023-04-20T17:16:07.135Z,6.73
2023-04-20T17:18:35.430Z,7.60
2023-04-20T17:21:03.718Z,7.60
2023-04-20T17:23:32.676Z,7.80
2023-04-20T17:26:00.894Z,7.10
2023-04-20T17:28:30.590Z,6.17
2023-04-20T17:30:58.854Z,6.87
2023-04-20T17:33:27.082Z,5.50
2023-04-20T17:35:56.758Z,6.70
2023-04-20T17:38:25.043Z,6.80
2023-04-20T17:40:53.473Z,6.30
2023-04-20T17:43:21.708Z,5.17
2023-04-20T17:45:51.529Z,5.60
2023-04-20T17:48:19.717Z,5.90
2023-04-20T17:50:49.331Z,6.80
2023-04-20T17:53:17.512Z,6.63
2023-04-20T17:55:45.851Z,6.93
2023-04-20T17:58:14.103Z,6.47
2023-04-20T18:00:43.040Z,6.57
2023-04-20T18:03:14.855Z,5.60
2023-04-20T18:05:43.453Z,6.63
2023-04-20T18:08:13.273Z,7.57
2023-04-20T18:10:41.500Z,6.80
2023-04-20T18:13:09.661Z,5.57
2023-04-20T18:15:37.888Z,7.50
2023-04-20T18:18:06.263Z,7.10
2023-04-20T18:20:36.007Z,6.50
2023-04-20T18:23:04.342Z,7.37
2023-04-20T18:25:32.526Z,6.30
2023-04-20T18:28:00.818Z,6.53
2023-04-20T18:30:29.133Z,6.70
2023-04-20T18:32:57.363Z,6.40
2023-04-20T18:35:25.780Z,6.43
2023-04-20T18:37:55.495Z,6.43
2023-04-20T18:40:23.819Z,6.10
2023-04-20T18:42:52.068Z,6.70
2023-04-20T18:45:21.725Z,6.77
2023-04-20T18:47:50.123Z,6.93
2023-04-20T18:50:18.492Z,7.60
2023-04-20T18:52:46.745Z,6.80
2023-04-20T18:55:16.418Z,6.57
2023-04-20T18:57:44.663Z,7.83
2023-04-20T19:00:14.226Z,7.63
2023-04-20T19:02:42.630Z,6.83
2023-04-20T19:05:12.742Z,7.50
2023-04-20T19:07:41.013Z,9.83
2023-04-20T19:10:09.901Z,7.70
2023-04-20T19:12:39.586Z,6.40
2023-04-20T19:15:08.854Z,7.30
2023-04-20T19:17:37.204Z,7.17
2023-04-20T19:20:06.057Z,7.60
2023-04-20T19:22:34.377Z,6.10
2023-04-20T19:25:02.628Z,7.10
2023-04-20T19:27:30.947Z,9.07
2023-04-20T19:30:00.550Z,7.10
2023-04-20T19:32:28.916Z,7.80
2023-04-20T19:34:59.129Z,8.70
2023-04-20T19:37:27.461Z,8.33
2023-04-20T19:39:55.704Z,7.93
2023-04-20T19:42:24.044Z,8.87
2023-04-20T19:44:53.496Z,8.17
2023-04-20T19:47:23.059Z,8.00
2023-04-20T19:49:51.419Z,7.27
2023-04-20T19:52:19.684Z,8.87
2023-04-20T19:54:47.976Z,8.23
2023-04-20T19:57:16.238Z,8.17
2023-04-20T19:59:44.491Z,9.07
2023-04-20T20:02:12.767Z,9.68
2023-04-20T20:04:42.530Z,9.53
2023-04-20T20:07:10.930Z,7.37
2023-04-20T20:09:40.755Z,10.20
2023-04-20T20:12:10.717Z,7.70
2023-04-20T20:14:39.084Z,8.47
2023-04-20T20:17:07.446Z,8.93
2023-04-20T20:19:35.634Z,8.10
2023-04-20T20:22:05.189Z,8.93
2023-04-20T20:24:33.442Z,8.60
2023-04-20T20:27:02.284Z,6.87
2023-04-20T20:29:30.520Z,8.37
2023-04-20T20:31:58.754Z,8.87
2023-04-20T20:34:27.009Z,8.20
2023-04-20T20:36:55.248Z,8.50
2023-04-20T20:39:24.853Z,10.73
2023-04-20T20:41:53.658Z,8.47
2023-04-20T20:44:22.052Z,9.70
2023-04-20T20:46:50.847Z,8.30
2023-04-20T20:49:19.305Z,9.90
2023-04-20T20:51:47.758Z,9.10
2023-04-20T20:54:15.952Z,9.80
2023-04-20T20:56:45.632Z,10.03
2023-04-20T20:59:13.885Z,9.50
2023-04-20T21:01:42.110Z,9.90
2023-04-20T21:04:10.580Z,10.30
2023-04-20T21:06:38.961Z,9.57
2023-04-20T21:09:07.165Z,10.03
2023-04-20T21:11:35.354Z,9.50
2023-04-20T21:14:05.094Z,11.00
2023-04-20T21:16:33.367Z,11.10
2023-04-20T21:19:01.724Z,9.23
2023-04-20T21:21:29.934Z,8.53
2023-04-20T21:23:58.095Z,11.37
2023-04-20T21:26:26.312Z,9.40
2023-04-20T21:28:54.564Z,8.30
2023-04-20T21:31:24.150Z,10.53
2023-04-20T21:33:52.349Z,10.13
2023-04-20T21:36:20.667Z,8.10
2023-04-20T21:38:48.960Z,12.50
2023-04-20T21:41:17.233Z,13.70
2023-04-20T21:43:45.525Z,9.90
2023-04-20T21:46:15.824Z,11.67
2023-04-20T21:48:45.414Z,13.97
2023-04-20T21:51:16.648Z,11.67
2023-04-20T21:53:44.986Z,12.37
2023-04-20T21:56:14.716Z,11.53
2023-04-20T21:58:42.925Z,12.67
2023-04-20T22:01:11.237Z,11.07
2023-04-20T22:03:39.674Z,8.70
2023-04-20T22:06:09.569Z,8.47
2023-04-20T22:08:39.872Z,11.40
2023-04-20T22:11:08.228Z,13.27
2023-04-20T22:13:37.044Z,14.60
2023-04-20T22:16:05.537Z,8.27
2023-04-20T22:18:33.829Z,13.53
2023-04-20T22:21:02.056Z,9.27
2023-04-20T22:23:31.608Z,14.53
2023-04-20T22:25:59.890Z,10.43
2023-04-20T22:28:28.073Z,13.40
2023-04-20T22:30:56.686Z,13.00
2023-04-20T22:33:25.361Z,12.43
2023-04-20T22:35:53.636Z,13.10
2023-04-20T22:38:21.881Z,12.63
2023-04-20T22:40:51.465Z,14.10
2023-04-20T22:43:20.381Z,13.40
2023-04-20T22:45:49.076Z,14.00
2023-04-20T22:48:17.514Z,11.90
2023-04-20T22:50:45.920Z,14.40
2023-04-20T22:53:14.350Z,8.83
2023-04-20T22:55:42.969Z,14.07
2023-04-20T22:58:12.568Z,10.80
2023-04-20T23:00:40.836Z,9.70
2023-04-20T23:03:09.348Z,13.17
2023-04-20T23:05:39.028Z,11.00
2023-04-20T23:08:07.599Z,14.97
2023-04-20T23:10:35.883Z,11.83
2023-04-20T23:13:04.997Z,15.60
2023-04-20T23:15:34.909Z,14.50
2023-04-20T23:18:03.504Z,14.63
2023-04-20T23:20:31.805Z,12.40
2023-04-20T23:23:00.003Z,13.97
2023-04-20T23:25:28.232Z,12.73
2023-04-20T23:27:56.454Z,15.67
2023-04-20T23:30:24.831Z,13.67
2023-04-20T23:32:54.493Z,15.43
2023-04-20T23:35:23.066Z,11.80
2023-04-20T23:37:51.905Z,10.07
2023-04-20T23:40:20.241Z,8.60
2023-04-20T23:42:48.505Z,9.20
2023-04-20T23:45:16.766Z,10.60
2023-04-20T23:47:45.016Z,12.57
2023-04-20T23:50:14.737Z,14.20
2023-04-20T23:52:42.999Z,13.93
2023-04-20T23:55:11.637Z,8.97
2023-04-20T23:57:39.870Z,12.57
